Time;durP1;ratioP1;P1;durP2;ratioP2;P2;SDS_P1;SDS_P2;PMS_P1;PMS_P2;Temp;Humidity;BMP_temperature;BMP_pressure;BME280_temperature;BME280_humidity;BME280_pressure;Samples;Min_cycle;Max_cycle;Signal;HPM_P1;HPM_P2
2022/08/04 00:02:24;;;;;;;5.65;2.10;;;27.50;70.40;;;;;;5052900;28;20044;-78
2022/08/04 00:05:16;;;;;;;3.72;1.30;;;27.50;70.50;;;;;;5053026;28;20051;-78
2022/08/04 00:08:09;;;;;;;4.30;0.97;;;27.50;70.50;;;;;;5052546;28;20022;-78
2022/08/04 00:10:38;;;;;;;4.97;1.35;;;27.40;70.50;;;;;;5042473;28;20045;-78
2022/08/04 00:13:06;;;;;;;3.45;1.30;;;27.40;70.60;;;;;;5052623;28;20086;-78
2022/08/04 00:15:33;;;;;;;4.85;1.10;;;27.40;70.70;;;;;;5052706;28;20027;-78
2022/08/04 00:18:08;;;;;;;6.63;1.13;;;27.30;70.80;;;;;;5052482;28;20029;-78
2022/08/04 00:20:40;;;;;;;4.03;1.13;;;27.20;70.90;;;;;;5052382;28;20535;-78
2022/08/04 00:23:08;;;;;;;6.70;1.38;;;27.20;71.00;;;;;;5052598;28;20072;-75
2022/08/04 00:25:38;;;;;;;7.38;1.38;;;27.20;71.10;;;;;;5052734;28;20029;-78
2022/08/04 00:28:03;;;;;;;5.03;1.40;;;27.20;71.20;;;;;;5052643;28;20044;-78
2022/08/04 00:30:29;;;;;;;5.32;1.30;;;27.10;71.20;;;;;;5054006;28;20021;-78
2022/08/04 00:32:57;;;;;;;5.72;2.15;;;27.10;71.90;;;;;;5056169;28;20104;-78
2022/08/04 00:35:23;;;;;;;4.13;1.50;;;27.10;71.50;;;;;;5056295;28;20096;-78
2022/08/04 00:37:49;;;;;;;4.82;1.60;;;27.00;71.50;;;;;;5055976;28;20441;-78
2022/08/04 00:40:30;;;;;;;7.30;1.50;;;27.00;71.70;;;;;;5056015;28;20021;-76
2022/08/04 00:43:14;;;;;;;4.63;1.90;;;27.00;71.80;;;;;;5055794;28;20464;-78
2022/08/04 00:45:49;;;;;;;7.43;2.03;;;26.90;71.90;;;;;;5055694;28;20072;-78
2022/08/04 00:48:46;;;;;;;3.83;1.52;;;26.90;72.00;;;;;;5055996;28;20017;-78
2022/08/04 00:51:45;;;;;;;5.55;1.60;;;26.80;72.00;;;;;;5055838;28;20036;-78
2022/08/04 00:54:19;;;;;;;4.38;1.52;;;26.80;72.20;;;;;;5048380;28;20053;-78
2022/08/04 00:57:10;;;;;;;5.35;1.70;;;26.70;72.30;;;;;;5055721;28;20123;-78
2022/08/04 00:59:51;;;;;;;5.13;1.77;;;26.70;72.40;;;;;;5055495;28;20017;-78
2022/08/04 01:02:37;;;;;;;6.45;1.58;;;26.70;72.40;;;;;;5055751;28;20040;-78
2022/08/04 01:05:15;;;;;;;4.63;1.67;;;26.60;72.40;;;;;;5055224;28;20048;-78
2022/08/04 01:07:50;;;;;;;5.13;1.75;;;26.60;72.30;;;;;;5055845;28;20056;-78
2022/08/04 01:10:31;;;;;;;4.18;1.52;;;26.60;72.60;;;;;;5055724;28;20029;-78
2022/08/04 01:13:19;;;;;;;4.45;1.50;;;26.60;72.80;;;;;;5055477;28;20050;-78
2022/08/04 01:15:56;;;;;;;6.45;1.65;;;26.60;72.60;;;;;;5055317;28;20484;-78
2022/08/04 01:18:45;;;;;;;5.03;1.55;;;26.50;72.70;;;;;;5055257;28;20033;-78
2022/08/04 01:21:29;;;;;;;5.07;1.52;;;26.50;72.70;;;;;;5054866;28;20037;-78
2022/08/04 01:23:54;;;;;;;5.97;1.33;;;26.50;72.70;;;;;;5055099;28;20057;-78
2022/08/04 01:27:02;;;;;;;6.38;1.60;;;26.60;72.70;;;;;;5055444;28;20529;-78
2022/08/04 01:29:34;;;;;;;6.35;1.88;;;26.50;72.80;;;;;;5044703;28;20431;-78
2022/08/04 01:32:18;;;;;;;4.95;2.03;;;26.40;72.80;;;;;;5055188;28;20044;-78
2022/08/04 01:34:51;;;;;;;5.85;2.00;;;26.40;72.90;;;;;;5055257;28;20111;-78
2022/08/04 01:37:47;;;;;;;4.22;1.50;;;26.40;73.00;;;;;;5055149;28;20017;-78
2022/08/04 01:40:14;;;;;;;5.40;1.67;;;26.30;73.20;;;;;;5054310;28;20037;-78
2022/08/04 01:42:42;;;;;;;5.30;1.70;;;26.30;73.20;;;;;;5054671;28;20040;-78
2022/08/04 01:45:10;;;;;;;3.03;1.50;;;26.30;73.20;;;;;;5054893;28;20025;-78
2022/08/04 01:47:41;;;;;;;5.88;1.70;;;26.30;73.10;;;;;;5054608;28;20029;-78
2022/08/04 01:50:09;;;;;;;6.72;1.75;;;26.30;72.90;;;;;;5055054;28;20388;-78
2022/08/04 01:52:36;;;;;;;5.85;1.70;;;26.20;73.10;;;;;;5054564;28;20033;-77
2022/08/04 01:55:05;;;;;;;9.15;1.75;;;26.10;73.40;;;;;;5054562;28;20035;-77
2022/08/04 01:57:33;;;;;;;6.18;1.85;;;26.00;73.60;;;;;;5054459;28;20468;-77
2022/08/04 01:59:59;;;;;;;7.60;2.38;;;26.00;73.60;;;;;;5054552;28;20059;-77
2022/08/04 02:02:25;;;;;;;5.53;1.75;;;26.00;73.90;;;;;;5054395;28;20100;-77
2022/08/04 02:04:51;;;;;;;8.38;1.90;;;26.00;73.90;;;;;;5054479;28;20527;-77
2022/08/04 02:07:45;;;;;;;6.88;2.17;;;26.00;73.90;;;;;;5054545;28;20023;-77
2022/08/04 02:10:46;;;;;;;3.75;1.50;;;25.90;73.90;;;;;;5054439;28;20059;-77
2022/08/04 02:13:50;;;;;;;5.55;1.33;;;26.00;74.00;;;;;;5054567;28;20021;-77
2022/08/04 02:16:43;;;;;;;4.88;1.77;;;26.00;74.00;;;;;;5050681;28;20488;-77
2022/08/04 02:19:24;;;;;;;5.35;1.83;;;26.00;73.90;;;;;;5054586;28;20027;-77
2022/08/04 02:21:56;;;;;;;6.57;1.95;;;25.90;74.00;;;;;;5054192;28;20032;-77
2022/08/04 02:24:26;;;;;;;4.20;1.55;;;25.80;74.30;;;;;;5053768;28;20045;-77
2022/08/04 02:26:55;;;;;;;6.60;1.45;;;25.70;74.50;;;;;;5053978;28;20036;-77
2022/08/04 02:29:49;;;;;;;7.85;1.75;;;25.80;74.50;;;;;;5053863;28;20025;-77
2022/08/04 02:32:24;;;;;;;8.10;2.00;;;25.80;74.30;;;;;;5053922;28;20444;-77
2022/08/04 02:35:02;;;;;;;5.75;1.90;;;25.70;74.50;;;;;;5053764;28;20033;-77
2022/08/04 02:37:30;;;;;;;7.18;1.80;;;25.50;74.60;;;;;;5053728;28;20032;-77
2022/08/04 02:40:00;;;;;;;5.85;1.50;;;25.50;74.90;;;;;;5053641;28;20017;-77
2022/08/04 02:42:27;;;;;;;5.53;1.83;;;25.40;75.00;;;;;;5053795;28;20021;-77
2022/08/04 02:44:57;;;;;;;3.70;1.60;;;25.50;75.10;;;;;;5053580;28;20032;-77
2022/08/04 02:47:24;;;;;;;8.60;1.58;;;25.50;75.10;;;;;;5053463;28;20052;-77
2022/08/04 02:49:50;;;;;;;6.05;1.90;;;25.50;75.10;;;;;;5053613;28;20025;-77
2022/08/04 02:52:17;;;;;;;5.13;1.33;;;25.50;75.70;;;;;;5053416;28;20025;-78
2022/08/04 02:54:46;;;;;;;9.30;1.92;;;25.60;74.90;;;;;;5053088;28;20543;-77
2022/08/04 02:57:12;;;;;;;8.35;1.95;;;25.60;74.70;;;;;;5053519;28;20036;-77
2022/08/04 02:59:53;;;;;;;5.53;1.65;;;25.60;74.60;;;;;;5053392;28;20106;-78
2022/08/04 03:02:46;;;;;;;7.70;1.55;;;25.60;74.60;;;;;;5053639;28;20028;-77
2022/08/04 03:05:20;;;;;;;6.28;1.80;;;25.70;74.60;;;;;;5049370;28;20407;-77
2022/08/04 03:08:26;;;;;;;7.32;1.77;;;25.70;74.50;;;;;;5053589;28;20017;-77
2022/08/04 03:11:21;;;;;;;4.07;1.35;;;25.70;74.50;;;;;;5053585;28;20037;-77
2022/08/04 03:13:52;;;;;;;7.82;1.70;;;25.80;74.40;;;;;;5053076;28;20021;-77
2022/08/04 03:16:29;;;;;;;8.73;2.38;;;25.70;74.20;;;;;;5053230;28;20025;-77
2022/08/04 03:19:09;;;;;;;7.25;1.40;;;25.70;74.20;;;;;;5053259;28;20108;-77
2022/08/04 03:22:12;;;;;;;5.85;2.13;;;25.70;74.50;;;;;;5053199;28;20031;-78
2022/08/04 03:24:50;;;;;;;;;;;25.60;74.80;;;;;;5053149;28;20120;-77
2022/08/04 03:27:43;;;;;;;11.25;1.80;;;25.50;75.00;;;;;;5053430;28;19965;-77
2022/08/04 03:30:35;;;;;;;8.63;1.60;;;25.50;75.00;;;;;;5053358;28;20029;-77
2022/08/04 03:33:13;;;;;;;5.53;1.85;;;25.40;75.10;;;;;;5053364;28;20027;-77
2022/08/04 03:35:50;;;;;;;5.93;1.40;;;25.40;75.40;;;;;;5052767;28;20029;-77
2022/08/04 03:38:42;;;;;;;8.68;2.20;;;25.40;75.30;;;;;;5052959;28;20095;-78
2022/08/04 03:41:29;;;;;;;6.93;2.25;;;25.40;75.00;;;;;;5044675;28;20469;-78
2022/08/04 03:44:19;;;;;;;6.72;1.45;;;25.50;75.00;;;;;;5052909;28;20079;-78
2022/08/04 03:47:02;;;;;;;8.52;2.10;;;25.50;74.70;;;;;;5052606;28;20025;-78
2022/08/04 03:49:42;;;;;;;7.60;1.67;;;25.50;74.80;;;;;;5053218;28;20039;-78
2022/08/04 03:55:34;;;;;;;8.02;1.55;;;25.40;75.00;;;;;;5053167;28;20044;-78
2022/08/04 03:58:12;;;;;;;4.60;1.48;;;25.40;75.00;;;;;;5052800;28;20021;-78
2022/08/04 04:00:47;;;;;;;8.73;1.88;;;25.40;75.00;;;;;;5052813;28;20021;-78
2022/08/04 04:03:29;;;;;;;7.25;1.52;;;25.40;75.00;;;;;;5052596;28;20540;-78
2022/08/04 04:06:17;;;;;;;5.53;1.50;;;25.40;74.90;;;;;;5055090;28;20025;-78
2022/08/04 04:09:01;;;;;;;5.40;1.48;;;25.50;74.80;;;;;;5056509;28;20021;-77
2022/08/04 04:12:02;;;;;;;5.53;1.40;;;25.50;74.70;;;;;;5056467;28;20021;-78
2022/08/04 04:14:39;;;;;;;6.85;1.05;;;25.50;74.60;;;;;;5056812;28;20079;-77
2022/08/04 04:17:30;;;;;;;5.93;1.30;;;25.60;74.40;;;;;;5056523;28;20021;-77
2022/08/04 04:20:13;;;;;;;3.33;1.02;;;25.70;74.30;;;;;;5056692;28;20033;-77
2022/08/04 04:23:06;;;;;;;6.78;1.35;;;25.80;74.20;;;;;;5056476;28;20025;-77
2022/08/04 04:25:48;;;;;;;5.10;1.35;;;25.80;74.10;;;;;;5056336;28;20091;-78
2022/08/04 04:28:28;;;;;;;5.63;1.20;;;25.90;74.10;;;;;;5056331;28;20079;-77
2022/08/04 04:31:22;;;;;;;4.03;1.10;;;25.90;74.00;;;;;;5056361;28;20037;-77
2022/08/04 04:34:09;;;;;;;6.55;1.30;;;25.90;74.00;;;;;;5056269;28;20025;-78
2022/08/04 04:36:34;;;;;;;6.25;1.90;;;25.90;73.80;;;;;;5056255;28;20098;-77
2022/08/04 04:39:09;;;;;;;7.47;2.30;;;25.90;73.80;;;;;;5055741;28;20464;-77
2022/08/04 04:41:59;;;;;;;10.30;2.72;;;26.00;73.90;;;;;;5055925;28;20108;-77
2022/08/04 04:44:52;;;;;;;4.97;1.85;;;25.90;73.90;;;;;;5055838;28;20037;-77
2022/08/04 04:47:39;;;;;;;;;;;25.90;74.00;;;;;;5056212;28;20025;-77
2022/08/04 04:50:14;;;;;;;5.70;1.70;;;25.80;74.40;;;;;;5055888;28;20006;-77
2022/08/04 04:53:21;;;;;;;5.28;1.25;;;25.80;74.50;;;;;;5055782;28;20036;-77
2022/08/04 04:55:54;;;;;;;6.22;1.10;;;25.70;74.70;;;;;;5054210;28;20036;-77
2022/08/04 04:58:21;;;;;;;5.75;1.52;;;25.70;75.00;;;;;;5055664;28;20021;-77
2022/08/04 05:01:03;;;;;;;6.85;1.50;;;25.60;75.20;;;;;;5055779;28;20025;-77
2022/08/04 05:03:50;;;;;;;4.65;1.05;;;25.50;75.80;;;;;;5054948;28;20098;-77
2022/08/04 05:06:34;;;;;;;7.90;1.70;;;25.40;75.70;;;;;;5055629;28;20029;-77
2022/08/04 05:09:30;;;;;;;7.65;1.75;;;25.40;75.70;;;;;;5055382;28;20031;-77
2022/08/04 05:12:15;;;;;;;5.03;1.30;;;25.30;75.80;;;;;;5055312;28;20534;-77
2022/08/04 05:14:46;;;;;;;9.18;1.90;;;25.30;75.80;;;;;;5055497;28;20091;-77
2022/08/04 05:17:22;;;;;;;7.68;2.28;;;25.40;76.30;;;;;;5054612;28;20102;-77
2022/08/04 05:19:56;;;;;;;5.63;2.00;;;25.40;76.00;;;;;;5054961;28;20048;-77
2022/08/04 05:22:28;;;;;;;3.65;1.80;;;25.30;76.80;;;;;;5055444;28;20035;-76
2022/08/04 05:25:01;;;;;;;7.75;1.55;;;25.20;77.20;;;;;;5054853;28;20052;-77
2022/08/04 05:27:36;;;;;;;6.80;1.75;;;25.20;77.00;;;;;;5055333;28;20029;-77
2022/08/04 05:30:04;;;;;;;7.53;2.55;;;25.40;76.70;;;;;;5054655;28;20036;-77
2022/08/04 05:32:39;;;;;;;7.63;2.05;;;25.50;76.70;;;;;;5054750;28;20017;-78
2022/08/04 05:35:10;;;;;;;7.00;2.25;;;25.50;76.60;;;;;;5054823;28;20488;-77
2022/08/04 05:37:39;;;;;;;10.00;2.45;;;25.60;76.50;;;;;;5054788;28;20032;-78
2022/08/04 05:40:07;;;;;;;9.98;2.72;;;25.70;76.70;;;;;;5054743;28;20105;-77
2022/08/04 05:42:36;;;;;;;7.00;2.67;;;25.70;76.60;;;;;;5054616;28;20104;-77
2022/08/04 05:45:03;;;;;;;10.13;2.40;;;25.70;76.60;;;;;;5054256;28;20033;-77
2022/08/04 05:47:31;;;;;;;5.53;2.20;;;25.70;76.60;;;;;;5054565;28;20436;-77
2022/08/04 05:49:58;;;;;;;6.05;2.60;;;25.70;76.50;;;;;;5054763;28;20183;-77
2022/08/04 05:52:25;;;;;;;10.60;2.53;;;25.70;76.50;;;;;;5054436;28;20488;-77
2022/08/04 05:54:51;;;;;;;9.55;2.28;;;25.70;76.40;;;;;;5054588;28;20476;-77
2022/08/04 05:57:18;;;;;;;10.05;2.60;;;25.70;76.80;;;;;;5054771;28;20035;-77
2022/08/04 05:59:48;;;;;;;7.28;2.60;;;25.80;76.80;;;;;;5054657;28;20023;-77
2022/08/04 06:02:16;;;;;;;7.28;2.47;;;25.80;76.70;;;;;;5054530;28;20075;-77
2022/08/04 06:04:46;;;;;;;4.88;2.30;;;25.90;76.50;;;;;;5054350;28;20063;-77
2022/08/04 06:07:12;;;;;;;8.23;2.42;;;25.90;76.20;;;;;;5054370;28;20385;-77
2022/08/04 06:09:39;;;;;;;6.32;2.33;;;26.00;76.00;;;;;;5054136;28;20032;-77
2022/08/04 06:12:18;;;;;;;6.72;2.40;;;26.10;75.80;;;;;;5054244;28;20064;-77
2022/08/04 06:14:49;;;;;;;5.60;2.17;;;26.10;75.50;;;;;;5054506;28;20074;-77
2022/08/04 06:17:29;;;;;;;7.10;2.30;;;26.30;75.60;;;;;;5054392;28;20028;-77
2022/08/04 06:19:56;;;;;;;7.75;2.75;;;26.30;75.30;;;;;;5054378;28;20033;-78
2022/08/04 06:22:23;;;;;;;5.90;2.38;;;26.40;75.00;;;;;;5054167;28;20029;-78
2022/08/04 06:24:51;;;;;;;8.30;2.40;;;26.40;74.90;;;;;;5053797;28;20051;-77
2022/08/04 06:27:17;;;;;;;7.45;2.42;;;26.40;74.70;;;;;;5053498;28;20433;-78
2022/08/04 06:29:45;;;;;;;9.48;2.60;;;26.50;74.70;;;;;;5053358;28;20025;-78
2022/08/04 06:32:23;;;;;;;8.07;2.15;;;26.50;74.60;;;;;;5054111;28;20025;-78
2022/08/04 06:34:58;;;;;;;6.85;1.83;;;26.50;74.50;;;;;;5054189;28;20024;-77
2022/08/04 06:37:26;;;;;;;7.82;1.98;;;26.60;74.50;;;;;;5053645;28;20033;-78
2022/08/04 06:39:52;;;;;;;5.93;1.80;;;26.60;74.50;;;;;;5054118;28;20029;-77
2022/08/04 06:42:21;;;;;;;8.65;2.47;;;26.70;74.60;;;;;;5053855;28;20045;-77
2022/08/04 06:44:50;;;;;;;7.57;2.50;;;26.80;74.40;;;;;;5053427;28;20036;-77
2022/08/04 06:47:20;;;;;;;10.85;3.17;;;26.90;74.00;;;;;;5053809;28;20017;-77
2022/08/04 06:49:49;;;;;;;5.15;1.98;;;26.90;73.70;;;;;;5053378;28;20484;-77
2022/08/04 06:52:17;;;;;;;5.55;2.45;;;26.90;73.40;;;;;;5053550;28;20025;-77
2022/08/04 06:54:47;;;;;;;8.73;2.75;;;26.90;73.00;;;;;;5053643;28;20024;-78
2022/08/04 06:57:15;;;;;;;7.20;2.20;;;26.90;72.70;;;;;;5053476;28;20021;-77
2022/08/04 06:59:45;;;;;;;7.10;2.08;;;27.00;73.10;;;;;;5053748;28;20025;-77
2022/08/04 07:02:15;;;;;;;8.70;2.05;;;27.00;73.50;;;;;;5053239;28;20025;-77
2022/08/04 07:04:45;;;;;;;5.55;1.75;;;27.00;74.90;;;;;;5053607;28;20044;-77
2022/08/04 07:07:11;;;;;;;8.85;2.13;;;27.00;74.50;;;;;;5053091;28;20104;-77
2022/08/04 07:09:38;;;;;;;12.45;2.40;;;27.10;74.10;;;;;;5053484;28;20099;-77
2022/08/04 07:12:08;;;;;;;5.82;1.95;;;27.10;74.20;;;;;;5053547;28;20029;-77
2022/08/04 07:14:35;;;;;;;12.10;2.33;;;27.10;74.40;;;;;;5053471;28;20025;-78
2022/08/04 07:17:06;;;;;;;7.82;1.95;;;27.20;74.50;;;;;;5053442;28;20105;-77
2022/08/04 07:19:36;;;;;;;8.48;2.08;;;27.30;74.50;;;;;;5053076;28;20067;-77
2022/08/04 07:22:04;;;;;;;8.27;2.40;;;27.30;74.30;;;;;;5053463;28;20111;-77
2022/08/04 07:24:35;;;;;;;13.50;2.60;;;27.40;74.40;;;;;;5052969;28;20472;-77
2022/08/04 07:27:01;;;;;;;7.82;1.63;;;27.50;74.50;;;;;;5053095;28;20111;-77
2022/08/04 07:29:27;;;;;;;8.77;2.10;;;27.60;74.30;;;;;;5053206;28;20025;-77
2022/08/04 07:31:58;;;;;;;9.68;2.30;;;27.60;74.50;;;;;;5053323;28;20043;-77
2022/08/04 07:34:25;;;;;;;10.77;2.60;;;27.70;74.20;;;;;;5053348;28;20088;-77
2022/08/04 07:36:57;;;;;;;5.63;2.00;;;27.80;74.20;;;;;;5053027;28;20021;-77
2022/08/04 07:39:25;;;;;;;8.65;2.17;;;27.80;73.60;;;;;;5054483;28;20029;-77
2022/08/04 07:41:52;;;;;;;6.18;1.98;;;27.90;73.40;;;;;;5056997;28;20173;-77
2022/08/04 07:44:18;;;;;;;6.88;1.92;;;28.00;73.10;;;;;;5056661;28;20488;-77
2022/08/04 07:46:47;;;;;;;6.40;1.95;;;28.10;71.90;;;;;;5057246;28;20035;-78
2022/08/04 07:49:13;;;;;;;8.88;2.10;;;28.10;71.30;;;;;;5057160;28;20025;-78
2022/08/04 07:51:39;;;;;;;8.38;1.60;;;28.30;70.70;;;;;;5057259;28;20064;-77
2022/08/04 07:54:08;;;;;;;6.15;1.73;;;28.30;69.90;;;;;;5056149;28;20056;-77
2022/08/04 07:56:38;;;;;;;7.53;1.70;;;28.50;69.80;;;;;;5056592;28;20021;-78
2022/08/04 07:59:05;;;;;;;7.90;1.80;;;28.50;69.40;;;;;;5056679;28;20124;-78
2022/08/04 08:01:31;;;;;;;5.85;1.42;;;28.60;68.90;;;;;;5056972;28;20017;-78
2022/08/04 08:03:59;;;;;;;6.35;1.70;;;28.60;68.40;;;;;;5056618;28;20043;-78
2022/08/04 08:06:28;;;;;;;7.10;1.40;;;28.80;68.40;;;;;;5056446;28;20044;-78
2022/08/04 08:08:54;;;;;;;6.60;1.85;;;28.90;68.50;;;;;;5056857;28;20467;-78
2022/08/04 08:11:20;;;;;;;8.07;1.52;;;29.00;68.40;;;;;;5056776;28;20025;-78
2022/08/04 08:13:45;;;;;;;6.80;1.30;;;29.10;67.60;;;;;;5056737;28;20380;-78
2022/08/04 08:16:12;;;;;;;6.97;1.70;;;29.00;66.70;;;;;;5056752;28;20407;-78
2022/08/04 08:18:37;;;;;;;8.02;2.17;;;29.10;66.50;;;;;;5056324;28;20029;-78
2022/08/04 08:21:04;;;;;;;5.90;1.42;;;29.10;67.40;;;;;;5056386;28;20032;-78
2022/08/04 08:23:31;;;;;;;8.43;1.48;;;29.20;66.80;;;;;;5055982;28;20053;-78
2022/08/04 08:25:58;;;;;;;7.00;1.73;;;29.20;67.10;;;;;;5056624;28;20037;-78
2022/08/04 08:28:24;;;;;;;10.07;1.50;;;29.20;67.50;;;;;;5056271;28;20021;-78
2022/08/04 08:30:52;;;;;;;8.13;1.83;;;29.30;67.30;;;;;;5056101;28;20025;-78
2022/08/04 08:33:19;;;;;;;6.20;1.58;;;29.30;67.00;;;;;;5056219;28;20127;-78
2022/08/04 08:35:47;;;;;;;4.63;1.10;;;29.30;66.70;;;;;;5056011;28;20399;-79
2022/08/04 08:38:16;;;;;;;6.70;1.30;;;29.40;65.60;;;;;;5056098;28;20025;-79
2022/08/04 08:41:19;;;;;;;10.90;1.67;;;29.50;65.40;;;;;;5055851;28;20025;-78
2022/08/04 08:44:26;;;;;;;6.70;1.20;;;29.60;65.40;;;;;;5056050;28;20063;-78
2022/08/04 08:47:10;;;;;;;8.77;2.35;;;29.70;65.50;;;;;;5048579;28;20052;-78
2022/08/04 08:49:52;;;;;;;7.75;1.85;;;29.70;65.80;;;;;;5055803;28;20476;-78
2022/08/04 08:52:34;;;;;;;8.93;2.22;;;29.70;66.30;;;;;;5055169;28;20479;-78
2022/08/04 08:55:27;;;;;;;8.30;1.85;;;29.80;66.70;;;;;;5055431;28;20032;-78
2022/08/04 08:58:14;;;;;;;8.75;2.17;;;30.00;67.10;;;;;;5055685;28;20048;-78
2022/08/04 09:01:17;;;;;;;6.95;1.88;;;30.00;67.00;;;;;;5055317;28;20032;-78
2022/08/04 09:03:45;;;;;;;;;;;30.10;67.40;;;;;;5055982;28;20033;-78
2022/08/04 09:06:41;;;;;;;13.43;1.75;;;30.10;67.20;;;;;;5055249;28;20430;-78
2022/08/04 09:09:29;;;;;;;5.43;1.60;;;30.00;66.60;;;;;;5055422;28;20029;-78
2022/08/04 09:12:19;;;;;;;11.77;2.78;;;29.80;66.90;;;;;;5055804;28;20389;-78
2022/08/04 09:14:54;;;;;;;6.82;2.45;;;29.80;67.10;;;;;;5055534;28;20028;-78
2022/08/04 09:17:27;;;;;;;4.68;1.90;;;29.70;67.10;;;;;;5055307;28;20068;-78
2022/08/04 09:20:08;;;;;;;6.93;1.90;;;29.70;67.10;;;;;;5055141;28;20068;-78
2022/08/04 09:23:00;;;;;;;6.73;1.50;;;29.60;67.10;;;;;;5055372;28;20064;-78
2022/08/04 09:25:53;;;;;;;6.25;2.30;;;29.60;67.60;;;;;;5053665;28;20049;-78
2022/08/04 09:28:23;;;;;;;10.35;2.10;;;29.70;67.00;;;;;;5055302;28;20032;-78
2022/08/04 09:31:09;;;;;;;10.18;2.78;;;29.60;67.20;;;;;;5055041;28;20029;-78
2022/08/04 09:33:38;;;;;;;8.95;2.33;;;29.60;67.10;;;;;;5055122;28;20025;-78
2022/08/04 09:36:22;;;;;;;7.88;2.15;;;29.60;67.10;;;;;;5055217;28;20032;-78
2022/08/04 09:39:12;;;;;;;7.80;3.45;;;29.70;67.40;;;;;;5054683;28;20464;-79
2022/08/04 09:41:59;;;;;;;10.15;3.50;;;29.70;66.70;;;;;;5055062;28;20021;-78
2022/08/04 09:45:09;;;;;;;11.45;2.80;;;29.80;67.30;;;;;;5055013;28;20083;-78
2022/08/04 09:47:49;;;;;;;7.03;2.45;;;29.80;67.60;;;;;;5052211;28;20040;-78
2022/08/04 09:50:36;;;;;;;18.50;3.10;;;29.70;67.30;;;;;;5054894;28;20067;-78
2022/08/04 09:53:16;;;;;;;9.68;2.65;;;29.80;67.30;;;;;;5054237;28;20025;-78
2022/08/04 09:55:45;;;;;;;8.15;1.92;;;29.80;66.90;;;;;;5053439;28;20112;-78
2022/08/04 09:58:35;;;;;;;7.18;1.95;;;29.90;67.00;;;;;;5054721;28;20017;-78
2022/08/04 10:01:23;;;;;;;6.38;1.90;;;29.90;66.80;;;;;;5050341;28;20045;-78
2022/08/04 10:04:00;;;;;;;7.00;2.00;;;29.90;65.90;;;;;;5053111;28;20072;-77
2022/08/04 10:06:50;;;;;;;6.63;1.75;;;29.90;65.40;;;;;;5054394;28;20480;-78
2022/08/04 10:09:44;;;;;;;7.32;2.00;;;29.70;66.00;;;;;;5054414;28;20029;-79
2022/08/04 10:12:19;;;;;;;6.93;1.73;;;29.80;66.40;;;;;;5054187;28;20037;-79
2022/08/04 10:14:55;;;;;;;6.45;1.67;;;29.70;66.20;;;;;;5054307;28;20037;-78
2022/08/04 10:17:31;;;;;;;6.55;1.63;;;29.60;66.60;;;;;;5054080;28;20025;-78
2022/08/04 10:20:10;;;;;;;5.40;1.73;;;29.60;66.50;;;;;;5054236;28;20036;-78
2022/08/04 10:22:39;;;;;;;5.00;1.42;;;29.50;66.50;;;;;;5054255;28;20033;-78
2022/08/04 10:25:29;;;;;;;5.40;1.23;;;29.40;65.30;;;;;;5053542;28;20174;-78
2022/08/04 10:27:59;;;;;;;6.00;1.30;;;29.30;65.10;;;;;;5054067;28;20025;-78
2022/08/04 10:30:27;;;;;;;8.00;1.23;;;29.30;65.30;;;;;;5053920;28;20054;-78
2022/08/04 10:33:01;;;;;;;6.03;1.27;;;29.20;65.40;;;;;;5053428;28;20507;-78
2022/08/04 10:35:33;;;;;;;8.45;1.30;;;29.10;66.10;;;;;;5053604;28;20056;-78
2022/08/04 10:38:39;;;;;;;5.30;1.58;;;29.10;66.40;;;;;;5053836;28;20036;-78
2022/08/04 10:41:51;;;;;;;9.23;1.50;;;29.00;66.90;;;;;;5041647;28;20044;-78
2022/08/04 10:44:36;;;;;;;6.32;2.10;;;28.80;67.70;;;;;;5031439;28;20080;-78
2022/08/04 10:47:15;;;;;;;9.18;1.38;;;28.70;68.00;;;;;;5031469;28;20099;-78
2022/08/04 10:49:43;;;;;;;5.35;1.40;;;28.60;68.30;;;;;;5047960;28;20091;-78
2022/08/04 10:52:21;;;;;;;4.22;1.27;;;28.50;68.70;;;;;;5053478;28;20075;-78
2022/08/04 10:54:56;;;;;;;5.82;1.58;;;28.50;69.00;;;;;;5053634;28;20364;-78
2022/08/04 10:57:28;;;;;;;5.03;1.20;;;28.40;69.50;;;;;;5053333;28;20044;-78
2022/08/04 11:00:09;;;;;;;8.93;1.80;;;28.30;70.60;;;;;;5053552;28;20021;-78
2022/08/04 11:03:08;;;;;;;9.75;1.40;;;28.20;71.80;;;;;;5053302;28;20025;-78
2022/08/04 11:05:53;;;;;;;6.35;1.42;;;28.20;73.80;;;;;;5053370;28;20040;-78
2022/08/04 11:08:26;;;;;;;7.35;1.40;;;28.00;76.10;;;;;;5053530;28;20052;-78
2022/08/04 11:11:18;;;;;;;6.07;1.40;;;27.90;76.70;;;;;;5053257;28;20017;-78
2022/08/04 11:13:53;;;;;;;7.97;1.75;;;27.80;77.00;;;;;;5053166;28;20097;-78
2022/08/04 11:16:25;;;;;;;5.80;1.33;;;27.70;77.40;;;;;;5052953;28;20029;-78
2022/08/04 11:19:09;;;;;;;6.22;1.55;;;27.70;78.20;;;;;;5053519;28;20036;-78
2022/08/04 11:21:42;;;;;;;8.32;1.52;;;27.60;79.60;;;;;;5053104;28;20480;-78
2022/08/04 11:24:18;;;;;;;7.10;1.42;;;27.50;79.60;;;;;;5052909;28;20060;-78
2022/08/04 11:27:02;;;;;;;5.55;1.15;;;27.50;79.80;;;;;;5052823;28;20103;-78
2022/08/04 11:29:41;;;;;;;7.10;1.83;;;27.50;80.40;;;;;;5053349;28;20400;-78
2022/08/04 11:32:13;;;;;;;5.68;1.48;;;27.40;83.20;;;;;;5053199;28;20100;-78
2022/08/04 11:34:42;;;;;;;;;;;27.20;84.90;;;;;;5053673;28;20100;-78
2022/08/04 11:37:33;;;;;;;5.03;1.42;;;27.10;84.00;;;;;;5052610;28;19904;-78
2022/08/04 11:40:11;;;;;;;9.48;2.30;;;27.20;84.40;;;;;;5052887;28;20472;-78
2022/08/04 11:42:49;;;;;;;8.85;1.85;;;27.10;86.00;;;;;;5053030;28;20369;-78
2022/08/04 11:45:19;;;;;;;10.85;2.00;;;27.00;86.80;;;;;;5053241;28;20048;-78
2022/08/04 11:48:06;;;;;;;4.93;1.45;;;27.00;86.90;;;;;;5052733;28;20029;-78
2022/08/04 11:50:42;;;;;;;7.75;1.50;;;27.10;87.20;;;;;;5053109;28;20027;-78
2022/08/04 11:53:14;;;;;;;4.15;1.27;;;27.10;87.10;;;;;;5052537;28;20125;-78
2022/08/04 11:55:41;;;;;;;8.02;2.53;;;27.10;87.20;;;;;;5053099;28;20021;-78
2022/08/04 11:58:07;;;;;;;6.43;1.90;;;27.10;87.40;;;;;;5052329;28;20025;-78
2022/08/04 12:00:39;;;;;;;5.15;1.40;;;27.10;87.90;;;;;;5052692;28;20091;-78
2022/08/04 12:03:25;;;;;;;5.60;1.80;;;27.10;88.20;;;;;;5052630;28;20037;-78
2022/08/04 12:06:28;;;;;;;5.53;1.55;;;27.10;88.90;;;;;;5052292;28;20423;-78
2022/08/04 12:09:00;;;;;;;5.60;1.30;;;27.20;89.00;;;;;;5052757;28;20045;-78
2022/08/04 12:11:34;;;;;;;6.50;1.65;;;27.10;88.30;;;;;;5052333;28;20392;-78
2022/08/04 12:14:20;;;;;;;5.55;1.55;;;27.00;88.40;;;;;;5052683;28;20025;-78
2022/08/04 12:17:15;;;;;;;7.15;1.80;;;26.90;88.30;;;;;;5052612;28;20021;-78
2022/08/04 12:19:54;;;;;;;6.25;2.00;;;26.80;88.70;;;;;;5051795;28;20079;-78
2022/08/04 12:22:35;;;;;;;8.38;1.98;;;26.60;88.70;;;;;;5052819;28;20025;-78
2022/08/04 12:25:07;;;;;;;5.57;1.35;;;26.60;89.90;;;;;;5052158;28;20052;-78
2022/08/04 12:27:40;;;;;;;5.93;1.83;;;26.50;90.20;;;;;;5055579;28;20532;-78
2022/08/04 12:30:07;;;;;;;5.32;1.98;;;26.60;90.30;;;;;;5056056;28;20476;-78
2022/08/04 12:33:02;;;;;;;3.90;1.30;;;26.70;90.70;;;;;;5056006;28;20025;-78
2022/08/04 12:35:58;;;;;;;9.00;2.00;;;26.80;90.60;;;;;;5056258;28;20361;-78
2022/08/04 12:38:27;;;;;;;5.18;1.38;;;26.80;91.30;;;;;;5055358;28;20040;-78
2022/08/04 12:41:01;;;;;;;4.35;1.35;;;26.90;91.30;;;;;;5055889;28;20033;-78
2022/08/04 12:43:45;;;;;;;5.00;1.33;;;27.00;91.00;;;;;;5056176;28;20047;-77
2022/08/04 12:46:23;;;;;;;5.57;1.65;;;27.10;90.60;;;;;;5056147;28;20021;-77
2022/08/04 12:48:50;;;;;;;7.60;1.60;;;27.20;90.40;;;;;;5055712;28;20036;-77
2022/08/04 12:51:17;;;;;;;5.75;1.20;;;27.20;90.30;;;;;;5055794;28;20029;-78
2022/08/04 12:53:44;;;;;;;4.63;1.25;;;27.30;90.20;;;;;;5055607;28;20449;-77
2022/08/04 12:56:11;;;;;;;4.97;1.48;;;27.40;89.60;;;;;;5055919;28;20053;-77
2022/08/04 12:58:50;;;;;;;5.72;1.40;;;27.50;90.60;;;;;;5055433;28;20032;-77
2022/08/04 13:01:22;;;;;;;7.18;1.70;;;27.70;90.60;;;;;;5055797;28;20116;-78
2022/08/04 13:03:55;;;;;;;4.28;1.80;;;27.80;89.10;;;;;;5055519;28;20032;-77
2022/08/04 13:06:26;;;;;;;8.80;1.50;;;27.90;87.50;;;;;;5055555;28;20032;-77
2022/08/04 13:08:53;;;;;;;7.55;2.28;;;27.90;86.90;;;;;;5055544;28;20090;-78
2022/08/04 13:11:21;;;;;;;5.03;1.27;;;27.90;87.10;;;;;;5055457;28;20033;-78
2022/08/04 13:13:52;;;;;;;4.18;1.30;;;27.90;86.30;;;;;;5055384;28;20353;-77
2022/08/04 13:16:28;;;;;;;7.85;1.15;;;27.80;85.00;;;;;;5055371;28;20052;-78
2022/08/04 13:18:55;;;;;;;18.23;1.55;;;27.70;84.00;;;;;;5055683;28;20090;-78
2022/08/04 13:21:24;;;;;;;5.25;1.65;;;27.70;84.50;;;;;;5055100;28;20032;-78
2022/08/04 13:23:54;;;;;;;6.68;1.10;;;27.80;84.30;;;;;;5054595;28;20056;-78
2022/08/04 13:26:20;;;;;;;5.13;1.20;;;28.00;86.40;;;;;;5055377;28;20036;-78
2022/08/04 13:28:47;;;;;;;5.05;0.88;;;28.20;87.20;;;;;;5055300;28;20029;-79
2022/08/04 13:31:16;;;;;;;6.15;1.40;;;28.40;82.30;;;;;;5054997;28;20059;-78
2022/08/04 13:33:45;;;;;;;3.95;0.93;;;28.50;80.50;;;;;;5055016;28;20025;-78
2022/08/04 13:36:11;;;;;;;4.57;1.00;;;28.50;79.00;;;;;;5055096;28;20033;-78
2022/08/04 13:38:44;;;;;;;4.05;0.90;;;28.50;78.60;;;;;;5054254;28;20032;-78
2022/08/04 13:41:10;;;;;;;5.43;0.63;;;28.50;78.90;;;;;;5054925;28;20029;-78